createdAt,value
2023-03-11T00:01:26.689Z,79.43
2023-03-11T00:06:28.062Z,81.16
2023-03-11T00:11:29.423Z,83.12
2023-03-11T00:16:30.956Z,80.53
2023-03-11T00:21:32.367Z,82.41
2023-03-11T00:26:33.854Z,81.90
2023-03-11T00:31:35.262Z,81.49
2023-03-11T00:36:36.630Z,83.22
2023-03-11T00:41:37.995Z,86.11
2023-03-11T00:46:39.365Z,83.06
2023-03-11T00:51:40.756Z,84.15
2023-03-11T00:56:42.208Z,84.51
2023-03-11T01:01:43.702Z,82.50
2023-03-11T01:06:45.913Z,84.04
2023-03-11T01:11:47.597Z,85.41
2023-03-11T01:16:48.991Z,84.28
2023-03-11T01:21:50.416Z,84.11
2023-03-11T01:26:51.758Z,84.63
2023-03-11T01:31:53.371Z,80.66
2023-03-11T01:36:54.807Z,80.65
2023-03-11T01:41:56.391Z,80.49
2023-03-11T01:46:57.796Z,79.83
2023-03-11T01:52:02.548Z,82.00
2023-03-11T01:57:09.519Z,82.02
2023-03-11T02:02:22.694Z,80.11
2023-03-11T02:07:24.246Z,81.75
2023-03-11T02:12:28.616Z,81.79
2023-03-11T02:17:30.586Z,79.29
2023-03-11T02:22:32.253Z,82.61
2023-03-11T02:27:35.969Z,84.07
2023-03-11T02:32:37.870Z,85.38
2023-03-11T02:37:44.087Z,86.71
2023-03-11T02:42:45.588Z,87.66
2023-03-11T02:47:46.967Z,88.72
2023-03-11T02:52:49.777Z,90.92
2023-03-11T02:57:51.168Z,90.09
2023-03-11T03:02:52.568Z,90.84
2023-03-11T03:07:54.027Z,89.14
2023-03-11T03:12:55.369Z,90.43
2023-03-11T03:17:56.760Z,92.61
2023-03-11T03:22:58.239Z,92.42
2023-03-11T03:27:59.744Z,90.19
2023-03-11T03:33:01.122Z,90.76
2023-03-11T03:38:02.532Z,89.61
2023-03-11T03:43:04.178Z,84.48
2023-03-11T03:48:05.883Z,79.79
2023-03-11T03:53:07.291Z,84.41
2023-03-11T03:58:08.638Z,83.86
2023-03-11T04:03:10.064Z,85.23
2023-03-11T04:08:11.405Z,86.06
2023-03-11T04:13:12.754Z,84.85
2023-03-11T04:18:14.369Z,83.88
2023-03-11T04:23:16.099Z,85.57
2023-03-11T04:28:17.433Z,87.99
2023-03-11T04:33:19.089Z,86.76
2023-03-11T04:38:20.437Z,86.64
2023-03-11T04:43:21.836Z,86.21
2023-03-11T04:48:23.196Z,88.86
2023-03-11T04:53:24.553Z,89.19
2023-03-11T04:58:26.022Z,88.57
2023-03-11T05:03:27.438Z,84.70
2023-03-11T05:08:28.782Z,86.96
2023-03-11T05:13:30.196Z,86.47
2023-03-11T05:18:31.630Z,84.66
2023-03-11T05:23:33.009Z,84.79
2023-03-11T05:28:34.418Z,84.63
2023-03-11T05:33:35.882Z,85.51
2023-03-11T05:38:37.416Z,85.98
2023-03-11T05:43:38.792Z,86.94
2023-03-11T05:48:40.181Z,88.38
2023-03-11T05:53:45.737Z,87.60
2023-03-11T05:58:47.112Z,86.92
2023-03-11T06:03:48.545Z,86.71
2023-03-11T06:08:50.075Z,88.24
2023-03-11T06:13:55.432Z,84.79
2023-03-11T06:18:56.826Z,85.39
2023-03-11T06:23:58.307Z,87.30
2023-03-11T06:28:59.681Z,85.64
2023-03-11T06:34:00.965Z,86.82
2023-03-11T06:39:02.434Z,87.20
2023-03-11T06:44:03.809Z,84.77
2023-03-11T06:49:05.166Z,82.82
2023-03-11T06:54:06.665Z,79.94
2023-03-11T06:59:08.068Z,80.11
2023-03-11T07:04:10.489Z,79.44
2023-03-11T07:09:11.926Z,78.33
2023-03-11T07:14:13.270Z,78.52
2023-03-11T07:19:14.875Z,76.76
2023-03-11T07:24:16.333Z,76.54
2023-03-11T07:29:17.742Z,75.08
2023-03-11T07:34:19.094Z,70.54
2023-03-11T07:39:20.771Z,70.11
2023-03-11T07:44:22.529Z,70.81
2023-03-11T07:49:23.956Z,66.83
2023-03-11T07:54:25.381Z,66.04
2023-03-11T07:59:26.890Z,69.32
2023-03-11T08:04:28.264Z,67.22
2023-03-11T08:09:29.594Z,66.59
2023-03-11T08:14:30.978Z,66.23
2023-03-11T08:19:32.392Z,65.78
2023-03-11T08:24:33.780Z,68.49
2023-03-11T08:29:35.325Z,68.31
2023-03-11T08:34:37.256Z,66.22
2023-03-11T08:39:38.866Z,67.25
2023-03-11T08:44:41.041Z,67.30
2023-03-11T08:49:42.591Z,67.91
2023-03-11T08:54:43.905Z,66.24
2023-03-11T08:59:45.255Z,67.12
2023-03-11T09:04:46.621Z,62.74
2023-03-11T09:09:48.028Z,62.82
2023-03-11T09:14:49.448Z,60.96
2023-03-11T09:19:50.832Z,60.42
2023-03-11T09:24:52.236Z,59.53
2023-03-11T09:29:53.617Z,60.52
2023-03-11T09:34:55.028Z,63.87
2023-03-11T09:39:56.399Z,60.51
2023-03-11T09:45:02.525Z,57.02
2023-03-11T09:50:13.383Z,58.91
2023-03-11T09:55:26.874Z,59.67
2023-03-11T10:00:28.299Z,61.41
2023-03-11T10:05:29.934Z,59.50
2023-03-11T10:10:34.817Z,55.72
2023-03-11T10:15:38.384Z,55.97
2023-03-11T10:20:55.631Z,55.70
2023-03-11T10:26:08.572Z,56.61
2023-03-11T10:31:10.126Z,56.50
2023-03-11T10:36:14.280Z,54.10
2023-03-11T10:41:38.881Z,55.90
2023-03-11T10:46:40.335Z,54.99
2023-03-11T10:51:45.170Z,53.07
2023-03-11T10:56:49.913Z,53.10
2023-03-11T11:01:56.108Z,57.32
2023-03-11T11:06:57.928Z,55.17
2023-03-11T11:12:02.020Z,54.94
2023-03-11T11:17:03.423Z,53.64
2023-03-11T11:22:05.074Z,52.70
2023-03-11T11:27:16.167Z,54.36
2023-03-11T11:32:26.951Z,52.59
2023-03-11T11:37:30.256Z,53.34
2023-03-11T11:42:31.756Z,52.39
2023-03-11T11:47:34.277Z,52.25
2023-03-11T11:52:43.123Z,51.05
2023-03-11T11:57:46.512Z,53.50
2023-03-11T12:02:47.908Z,53.27
2023-03-11T12:07:57.295Z,53.29
2023-03-11T12:13:01.692Z,51.58
2023-03-11T12:18:06.128Z,52.28
2023-03-11T12:23:24.791Z,51.58
2023-03-11T12:28:35.394Z,50.34
2023-03-11T12:33:42.971Z,52.20
2023-03-11T12:38:47.071Z,51.96
2023-03-11T12:43:48.387Z,53.43
2023-03-11T12:49:05.322Z,53.49
2023-03-11T12:54:28.643Z,52.52
2023-03-11T12:59:32.711Z,53.56
2023-03-11T13:04:37.086Z,52.83
2023-03-11T13:09:38.762Z,51.72
2023-03-11T13:14:40.185Z,50.80
2023-03-11T13:19:49.196Z,49.46
2023-03-11T13:24:50.912Z,51.59
2023-03-11T13:30:00.159Z,50.32
2023-03-11T13:35:20.217Z,48.69
2023-03-11T13:40:41.345Z,48.34
2023-03-11T13:45:47.373Z,52.29
2023-03-11T13:50:55.092Z,54.33
2023-03-11T13:55:56.696Z,51.88
2023-03-11T14:00:59.501Z,52.59
2023-03-11T14:06:04.149Z,52.67
2023-03-11T14:11:08.491Z,53.54
2023-03-11T14:16:28.845Z,52.98
2023-03-11T14:21:30.740Z,50.53
2023-03-11T14:26:34.116Z,52.87
2023-03-11T14:31:36.834Z,52.21
2023-03-11T14:36:41.239Z,51.03
2023-03-11T14:41:42.578Z,53.16
2023-03-11T14:46:45.304Z,50.59
2023-03-11T14:51:49.010Z,49.81
2023-03-11T14:56:54.354Z,52.86
2023-03-11T15:01:57.911Z,51.42
2023-03-11T15:07:00.013Z,51.87
2023-03-11T15:12:02.593Z,53.57
2023-03-11T15:17:32.973Z,51.32
2023-03-11T15:22:39.290Z,52.19
2023-03-11T15:27:40.759Z,59.40
2023-03-11T15:32:45.943Z,61.47
2023-03-11T15:37:48.291Z,63.15
2023-03-11T15:43:09.717Z,63.88
2023-03-11T15:48:12.474Z,65.26
2023-03-11T15:53:13.856Z,65.04
2023-03-11T15:58:16.186Z,63.82
2023-03-11T16:03:18.004Z,63.74
2023-03-11T16:08:19.616Z,65.29
2023-03-11T16:13:20.982Z,65.25
2023-03-11T16:18:22.296Z,67.33
2023-03-11T16:23:25.364Z,66.08
2023-03-11T16:28:26.941Z,65.75
2023-03-11T16:33:28.285Z,65.96
2023-03-11T16:38:30.021Z,64.87
2023-03-11T16:43:31.636Z,68.08
2023-03-11T16:48:33.324Z,70.05
2023-03-11T16:53:34.784Z,69.57
2023-03-11T16:58:36.151Z,71.14
2023-03-11T17:03:42.544Z,70.17
2023-03-11T17:08:44.414Z,70.94
2023-03-11T17:13:45.915Z,71.62
2023-03-11T17:18:47.242Z,71.55
2023-03-11T17:23:48.608Z,72.34
2023-03-11T17:28:50.017Z,72.35
2023-03-11T17:33:51.422Z,72.21
2023-03-11T17:38:53.821Z,72.47
2023-03-11T17:43:55.205Z,72.82
2023-03-11T17:48:56.587Z,73.62
2023-03-11T17:53:58.062Z,73.43
2023-03-11T17:58:59.577Z,74.32
2023-03-11T18:04:00.961Z,73.38
2023-03-11T18:09:02.382Z,74.71
2023-03-11T18:14:03.760Z,77.20
2023-03-11T18:19:05.594Z,75.60
2023-03-11T18:24:07.106Z,76.93
2023-03-11T18:29:08.480Z,76.73
2023-03-11T18:34:09.972Z,75.62
2023-03-11T18:39:11.494Z,77.81
2023-03-11T18:44:12.985Z,76.00
2023-03-11T18:49:14.365Z,74.15
2023-03-11T18:54:15.702Z,75.28
2023-03-11T18:59:17.187Z,74.31
2023-03-11T19:04:18.744Z,75.14
2023-03-11T19:09:20.172Z,74.97
2023-03-11T19:14:21.550Z,76.19
2023-03-11T19:19:23.020Z,75.96
2023-03-11T19:24:24.363Z,76.82
2023-03-11T19:29:25.716Z,75.96
2023-03-11T19:34:27.169Z,78.32
2023-03-11T19:39:28.545Z,78.61
2023-03-11T19:44:30.014Z,77.58
2023-03-11T19:49:31.470Z,77.42
2023-03-11T19:54:32.881Z,79.65
2023-03-11T19:59:34.504Z,79.54
2023-03-11T20:04:35.865Z,78.77
2023-03-11T20:09:37.320Z,78.68
2023-03-11T20:14:38.736Z,78.64
2023-03-11T20:19:40.207Z,79.09
2023-03-11T20:24:41.718Z,79.60
2023-03-11T20:29:43.138Z,78.83
2023-03-11T20:34:44.601Z,79.03
2023-03-11T20:39:46.033Z,80.68
2023-03-11T20:44:51.113Z,79.89
2023-03-11T20:49:52.502Z,80.26
2023-03-11T20:54:53.916Z,80.88
2023-03-11T20:59:55.330Z,81.57
2023-03-11T21:04:56.706Z,81.95
2023-03-11T21:09:58.156Z,81.65
2023-03-11T21:14:59.803Z,82.20
2023-03-11T21:20:01.336Z,82.34
2023-03-11T21:25:02.939Z,82.57
2023-03-11T21:30:04.568Z,83.38
2023-03-11T21:35:05.984Z,83.63
2023-03-11T21:40:07.745Z,84.96
2023-03-11T21:45:09.549Z,84.31
2023-03-11T21:50:11.525Z,83.44
2023-03-11T21:55:13.145Z,82.54
2023-03-11T22:00:14.786Z,84.25
2023-03-11T22:05:16.448Z,86.11
2023-03-11T22:10:18.118Z,87.34
2023-03-11T22:15:19.587Z,85.80
2023-03-11T22:20:21.042Z,85.44
2023-03-11T22:25:22.543Z,85.78
2023-03-11T22:30:23.987Z,85.47
2023-03-11T22:35:25.400Z,84.58
2023-03-11T22:40:29.312Z,86.98
2023-03-11T22:45:30.728Z,88.11
2023-03-11T22:50:32.227Z,89.27
2023-03-11T22:55:33.700Z,88.38
2023-03-11T23:00:35.583Z,88.94
2023-03-11T23:05:37.258Z,87.14
2023-03-11T23:10:42.504Z,88.13
2023-03-11T23:15:44.572Z,90.00
2023-03-11T23:20:45.917Z,90.45
2023-03-11T23:25:47.267Z,89.64
2023-03-11T23:30:48.698Z,90.30
2023-03-11T23:35:50.075Z,90.97
2023-03-11T23:40:51.510Z,91.47
2023-03-11T23:45:53.038Z,90.12
2023-03-11T23:50:54.418Z,91.03
2023-03-11T23:55:55.779Z,92.06
